sensor_id;sensor_type;location;lat;lon;timestamp;P1;durP1;ratioP1;P2;durP2;ratioP2
22754;SDS011;11544;42.020;23.094;2024-03-02T00:01:34;37.92;;;21.23;;
22754;SDS011;11544;42.020;23.094;2024-03-02T00:04:02;33.10;;;19.50;;
22754;SDS011;11544;42.020;23.094;2024-03-02T00:06:30;35.65;;;19.20;;
22754;SDS011;11544;42.020;23.094;2024-03-02T00:08:58;36.38;;;20.02;;
22754;SDS011;11544;42.020;23.094;2024-03-02T00:11:25;30.73;;;18.52;;
22754;SDS011;11544;42.020;23.094;2024-03-02T00:13:53;34.03;;;18.67;;
22754;SDS011;11544;42.020;23.094;2024-03-02T00:16:20;37.28;;;20.80;;
22754;SDS011;11544;42.020;23.094;2024-03-02T00:18:47;39.97;;;22.27;;
22754;SDS011;11544;42.020;23.094;2024-03-02T00:21:14;44.15;;;23.90;;
22754;SDS011;11544;42.020;23.094;2024-03-02T00:23:43;43.17;;;22.73;;
22754;SDS011;11544;42.020;23.094;2024-03-02T00:26:10;42.80;;;22.50;;
22754;SDS011;11544;42.020;23.094;2024-03-02T00:28:38;37.42;;;19.60;;
22754;SDS011;11544;42.020;23.094;2024-03-02T00:31:07;36.05;;;18.95;;
22754;SDS011;11544;42.020;23.094;2024-03-02T00:33:36;34.15;;;20.05;;
22754;SDS011;11544;42.020;23.094;2024-03-02T00:36:07;38.13;;;21.33;;
22754;SDS011;11544;42.020;23.094;2024-03-02T00:38:34;33.50;;;18.10;;
22754;SDS011;11544;42.020;23.094;2024-03-02T00:41:21;31.30;;;18.90;;
22754;SDS011;11544;42.020;23.094;2024-03-02T00:44:02;30.00;;;17.30;;
22754;SDS011;11544;42.020;23.094;2024-03-02T00:46:33;34.03;;;17.42;;
22754;SDS011;11544;42.020;23.094;2024-03-02T00:49:01;32.15;;;16.90;;
22754;SDS011;11544;42.020;23.094;2024-03-02T00:51:48;30.25;;;17.25;;
22754;SDS011;11544;42.020;23.094;2024-03-02T00:54:24;30.95;;;17.63;;
22754;SDS011;11544;42.020;23.094;2024-03-02T00:56:52;32.05;;;17.85;;
22754;SDS011;11544;42.020;23.094;2024-03-02T00:59:22;31.52;;;17.95;;
22754;SDS011;11544;42.020;23.094;2024-03-02T01:01:49;32.28;;;18.65;;
22754;SDS011;11544;42.020;23.094;2024-03-02T01:04:16;32.92;;;18.17;;
22754;SDS011;11544;42.020;23.094;2024-03-02T01:06:43;29.50;;;17.33;;
22754;SDS011;11544;42.020;23.094;2024-03-02T01:09:10;33.53;;;18.60;;
22754;SDS011;11544;42.020;23.094;2024-03-02T01:11:39;30.95;;;17.88;;
22754;SDS011;11544;42.020;23.094;2024-03-02T01:14:06;29.52;;;17.58;;
22754;SDS011;11544;42.020;23.094;2024-03-02T01:16:33;31.83;;;17.98;;
22754;SDS011;11544;42.020;23.094;2024-03-02T01:19:00;32.50;;;19.25;;
22754;SDS011;11544;42.020;23.094;2024-03-02T01:21:27;32.30;;;17.92;;
22754;SDS011;11544;42.020;23.094;2024-03-02T01:23:54;35.67;;;19.30;;
22754;SDS011;11544;42.020;23.094;2024-03-02T01:26:20;34.28;;;18.85;;
22754;SDS011;11544;42.020;23.094;2024-03-02T01:28:47;32.80;;;18.92;;
22754;SDS011;11544;42.020;23.094;2024-03-02T01:31:15;32.92;;;19.10;;
22754;SDS011;11544;42.020;23.094;2024-03-02T01:33:41;35.13;;;18.67;;
22754;SDS011;11544;42.020;23.094;2024-03-02T01:36:08;33.05;;;19.00;;
22754;SDS011;11544;42.020;23.094;2024-03-02T01:38:35;30.63;;;18.88;;
22754;SDS011;11544;42.020;23.094;2024-03-02T01:41:02;35.15;;;18.60;;
22754;SDS011;11544;42.020;23.094;2024-03-02T01:43:29;30.90;;;17.55;;
22754;SDS011;11544;42.020;23.094;2024-03-02T01:45:56;33.10;;;18.23;;
22754;SDS011;11544;42.020;23.094;2024-03-02T01:48:23;31.10;;;18.05;;
22754;SDS011;11544;42.020;23.094;2024-03-02T01:50:50;31.25;;;18.63;;
22754;SDS011;11544;42.020;23.094;2024-03-02T01:53:17;33.70;;;19.05;;
22754;SDS011;11544;42.020;23.094;2024-03-02T01:55:44;38.53;;;20.73;;
22754;SDS011;11544;42.020;23.094;2024-03-02T01:58:11;39.75;;;21.70;;
22754;SDS011;11544;42.020;23.094;2024-03-02T02:00:38;38.60;;;21.15;;
22754;SDS011;11544;42.020;23.094;2024-03-02T02:03:05;43.80;;;23.17;;
22754;SDS011;11544;42.020;23.094;2024-03-02T02:05:33;41.50;;;21.75;;
22754;SDS011;11544;42.020;23.094;2024-03-02T02:08:01;36.10;;;20.15;;
22754;SDS011;11544;42.020;23.094;2024-03-02T02:10:28;32.67;;;18.77;;
22754;SDS011;11544;42.020;23.094;2024-03-02T02:12:55;33.42;;;19.67;;
22754;SDS011;11544;42.020;23.094;2024-03-02T02:17:50;36.22;;;19.23;;
22754;SDS011;11544;42.020;23.094;2024-03-02T02:20:17;31.92;;;18.42;;
22754;SDS011;11544;42.020;23.094;2024-03-02T02:23:19;30.08;;;18.58;;
22754;SDS011;11544;42.020;23.094;2024-03-02T02:25:40;30.60;;;16.90;;
22754;SDS011;11544;42.020;23.094;2024-03-02T02:28:07;32.13;;;18.42;;
22754;SDS011;11544;42.020;23.094;2024-03-02T02:30:34;31.63;;;17.75;;
22754;SDS011;11544;42.020;23.094;2024-03-02T02:33:01;31.38;;;18.63;;
22754;SDS011;11544;42.020;23.094;2024-03-02T02:35:28;36.70;;;19.48;;
22754;SDS011;11544;42.020;23.094;2024-03-02T02:37:56;30.58;;;18.63;;
22754;SDS011;11544;42.020;23.094;2024-03-02T02:40:23;32.20;;;17.83;;
22754;SDS011;11544;42.020;23.094;2024-03-02T02:42:50;30.08;;;18.33;;
22754;SDS011;11544;42.020;23.094;2024-03-02T02:45:20;32.25;;;18.80;;
22754;SDS011;11544;42.020;23.094;2024-03-02T02:47:47;27.30;;;17.33;;
22754;SDS011;11544;42.020;23.094;2024-03-02T02:50:14;32.08;;;19.20;;
22754;SDS011;11544;42.020;23.094;2024-03-02T02:52:41;36.70;;;19.38;;
22754;SDS011;11544;42.020;23.094;2024-03-02T02:55:12;30.63;;;18.60;;
22754;SDS011;11544;42.020;23.094;2024-03-02T02:57:40;34.65;;;19.10;;
22754;SDS011;11544;42.020;23.094;2024-03-02T03:00:13;36.70;;;19.17;;
22754;SDS011;11544;42.020;23.094;2024-03-02T03:02:44;29.15;;;18.58;;
22754;SDS011;11544;42.020;23.094;2024-03-02T03:05:12;29.35;;;17.33;;
22754;SDS011;11544;42.020;23.094;2024-03-02T03:07:41;33.20;;;18.55;;
22754;SDS011;11544;42.020;23.094;2024-03-02T03:10:09;34.65;;;18.77;;
22754;SDS011;11544;42.020;23.094;2024-03-02T03:12:36;30.45;;;18.63;;
22754;SDS011;11544;42.020;23.094;2024-03-02T03:15:04;31.23;;;19.13;;
22754;SDS011;11544;42.020;23.094;2024-03-02T03:17:33;29.40;;;18.00;;
22754;SDS011;11544;42.020;23.094;2024-03-02T03:20:01;38.78;;;20.08;;
22754;SDS011;11544;42.020;23.094;2024-03-02T03:22:30;33.85;;;19.33;;
22754;SDS011;11544;42.020;23.094;2024-03-02T03:25:01;34.03;;;19.15;;
22754;SDS011;11544;42.020;23.094;2024-03-02T03:27:30;34.20;;;19.20;;
22754;SDS011;11544;42.020;23.094;2024-03-02T03:29:56;30.73;;;18.58;;
22754;SDS011;11544;42.020;23.094;2024-03-02T03:32:23;35.00;;;18.75;;
22754;SDS011;11544;42.020;23.094;2024-03-02T03:34:51;29.08;;;17.67;;
22754;SDS011;11544;42.020;23.094;2024-03-02T03:37:18;30.70;;;17.60;;
22754;SDS011;11544;42.020;23.094;2024-03-02T03:39:45;28.77;;;17.90;;
22754;SDS011;11544;42.020;23.094;2024-03-02T03:42:12;31.17;;;18.25;;
22754;SDS011;11544;42.020;23.094;2024-03-02T03:44:38;34.05;;;18.27;;
22754;SDS011;11544;42.020;23.094;2024-03-02T03:47:07;31.88;;;18.40;;
22754;SDS011;11544;42.020;23.094;2024-03-02T03:49:33;33.70;;;19.20;;
22754;SDS011;11544;42.020;23.094;2024-03-02T03:52:00;34.72;;;18.83;;
22754;SDS011;11544;42.020;23.094;2024-03-02T03:54:27;33.85;;;19.40;;
22754;SDS011;11544;42.020;23.094;2024-03-02T03:56:55;37.03;;;19.95;;
22754;SDS011;11544;42.020;23.094;2024-03-02T03:59:22;30.45;;;17.98;;
22754;SDS011;11544;42.020;23.094;2024-03-02T04:01:50;34.75;;;19.38;;
22754;SDS011;11544;42.020;23.094;2024-03-02T04:04:17;31.67;;;18.52;;
22754;SDS011;11544;42.020;23.094;2024-03-02T04:06:44;34.28;;;18.58;;
22754;SDS011;11544;42.020;23.094;2024-03-02T04:09:11;33.65;;;18.17;;
22754;SDS011;11544;42.020;23.094;2024-03-02T04:11:37;33.33;;;18.38;;
22754;SDS011;11544;42.020;23.094;2024-03-02T04:14:04;31.17;;;18.50;;
22754;SDS011;11544;42.020;23.094;2024-03-02T04:16:32;35.80;;;19.73;;
22754;SDS011;11544;42.020;23.094;2024-03-02T04:18:59;32.67;;;19.67;;
22754;SDS011;11544;42.020;23.094;2024-03-02T04:21:26;31.23;;;18.67;;
22754;SDS011;11544;42.020;23.094;2024-03-02T04:23:53;33.03;;;19.27;;
22754;SDS011;11544;42.020;23.094;2024-03-02T04:26:24;35.05;;;20.40;;
22754;SDS011;11544;42.020;23.094;2024-03-02T04:28:52;33.60;;;17.92;;
22754;SDS011;11544;42.020;23.094;2024-03-02T04:31:20;32.83;;;18.42;;
22754;SDS011;11544;42.020;23.094;2024-03-02T04:33:47;31.20;;;18.33;;
22754;SDS011;11544;42.020;23.094;2024-03-02T04:36:14;35.60;;;18.85;;
22754;SDS011;11544;42.020;23.094;2024-03-02T04:38:41;32.63;;;18.73;;
22754;SDS011;11544;42.020;23.094;2024-03-02T04:41:08;36.70;;;18.60;;
22754;SDS011;11544;42.020;23.094;2024-03-02T04:43:35;28.55;;;17.67;;
22754;SDS011;11544;42.020;23.094;2024-03-02T04:46:02;35.15;;;18.63;;
22754;SDS011;11544;42.020;23.094;2024-03-02T04:48:29;31.15;;;17.83;;
22754;SDS011;11544;42.020;23.094;2024-03-02T04:50:56;30.13;;;18.08;;
22754;SDS011;11544;42.020;23.094;2024-03-02T04:53:23;30.45;;;17.33;;
22754;SDS011;11544;42.020;23.094;2024-03-02T04:55:49;27.80;;;17.92;;
22754;SDS011;11544;42.020;23.094;2024-03-02T04:58:22;35.00;;;18.95;;
22754;SDS011;11544;42.020;23.094;2024-03-02T05:00:49;32.83;;;18.40;;
22754;SDS011;11544;42.020;23.094;2024-03-02T05:03:16;33.20;;;19.40;;
22754;SDS011;11544;42.020;23.094;2024-03-02T05:05:42;29.30;;;17.85;;
22754;SDS011;11544;42.020;23.094;2024-03-02T05:08:09;34.88;;;19.13;;
22754;SDS011;11544;42.020;23.094;2024-03-02T05:10:38;38.30;;;20.20;;
22754;SDS011;11544;42.020;23.094;2024-03-02T05:13:05;33.38;;;19.30;;
22754;SDS011;11544;42.020;23.094;2024-03-02T05:15:32;35.13;;;19.40;;
22754;SDS011;11544;42.020;23.094;2024-03-02T05:17:59;34.05;;;19.33;;
22754;SDS011;11544;42.020;23.094;2024-03-02T05:20:28;36.80;;;20.48;;
22754;SDS011;11544;42.020;23.094;2024-03-02T05:22:55;29.52;;;18.38;;
22754;SDS011;11544;42.020;23.094;2024-03-02T05:25:22;33.35;;;18.40;;
22754;SDS011;11544;42.020;23.094;2024-03-02T05:27:49;34.10;;;18.48;;
22754;SDS011;11544;42.020;23.094;2024-03-02T05:30:16;33.13;;;20.45;;
22754;SDS011;11544;42.020;23.094;2024-03-02T05:32:43;28.95;;;16.77;;
22754;SDS011;11544;42.020;23.094;2024-03-02T05:35:10;29.63;;;17.02;;
22754;SDS011;11544;42.020;23.094;2024-03-02T05:37:39;25.00;;;14.57;;
22754;SDS011;11544;42.020;23.094;2024-03-02T05:40:06;25.52;;;15.25;;
22754;SDS011;11544;42.020;23.094;2024-03-02T05:42:34;22.05;;;14.00;;
22754;SDS011;11544;42.020;23.094;2024-03-02T05:45:01;27.17;;;15.60;;
22754;SDS011;11544;42.020;23.094;2024-03-02T05:47:28;21.42;;;15.18;;
22754;SDS011;11544;42.020;23.094;2024-03-02T05:49:55;23.77;;;14.40;;
22754;SDS011;11544;42.020;23.094;2024-03-02T05:52:21;25.05;;;14.13;;
22754;SDS011;11544;42.020;23.094;2024-03-02T05:54:48;23.15;;;14.80;;
22754;SDS011;11544;42.020;23.094;2024-03-02T05:57:16;26.02;;;16.25;;
22754;SDS011;11544;42.020;23.094;2024-03-02T05:59:48;25.65;;;17.15;;
22754;SDS011;11544;42.020;23.094;2024-03-02T06:02:15;28.10;;;18.33;;
22754;SDS011;11544;42.020;23.094;2024-03-02T06:04:42;30.85;;;18.83;;
22754;SDS011;11544;42.020;23.094;2024-03-02T06:07:09;35.30;;;19.92;;
22754;SDS011;11544;42.020;23.094;2024-03-02T06:09:36;32.05;;;20.55;;
22754;SDS011;11544;42.020;23.094;2024-03-02T06:12:04;32.17;;;21.02;;
22754;SDS011;11544;42.020;23.094;2024-03-02T06:14:31;34.65;;;21.35;;
22754;SDS011;11544;42.020;23.094;2024-03-02T06:16:58;34.90;;;21.80;;
22754;SDS011;11544;42.020;23.094;2024-03-02T06:19:26;35.13;;;21.80;;
22754;SDS011;11544;42.020;23.094;2024-03-02T06:21:54;38.17;;;22.13;;
22754;SDS011;11544;42.020;23.094;2024-03-02T06:24:21;36.92;;;21.20;;
22754;SDS011;11544;42.020;23.094;2024-03-02T06:26:48;37.75;;;22.48;;
22754;SDS011;11544;42.020;23.094;2024-03-02T06:29:14;37.03;;;22.05;;
22754;SDS011;11544;42.020;23.094;2024-03-02T06:31:41;41.10;;;24.15;;
22754;SDS011;11544;42.020;23.094;2024-03-02T06:34:08;39.35;;;22.13;;
22754;SDS011;11544;42.020;23.094;2024-03-02T06:36:35;37.42;;;20.73;;
22754;SDS011;11544;42.020;23.094;2024-03-02T06:39:02;33.30;;;20.60;;
22754;SDS011;11544;42.020;23.094;2024-03-02T06:41:29;31.48;;;18.75;;
22754;SDS011;11544;42.020;23.094;2024-03-02T06:43:56;27.40;;;17.52;;
22754;SDS011;11544;42.020;23.094;2024-03-02T06:46:26;29.60;;;17.27;;
22754;SDS011;11544;42.020;23.094;2024-03-02T06:48:53;34.30;;;17.90;;
22754;SDS011;11544;42.020;23.094;2024-03-02T06:51:20;33.80;;;18.55;;
22754;SDS011;11544;42.020;23.094;2024-03-02T06:53:47;32.28;;;19.70;;
22754;SDS011;11544;42.020;23.094;2024-03-02T06:56:14;34.25;;;18.80;;
22754;SDS011;11544;42.020;23.094;2024-03-02T06:58:41;29.13;;;17.38;;
22754;SDS011;11544;42.020;23.094;2024-03-02T07:01:09;28.00;;;17.63;;
22754;SDS011;11544;42.020;23.094;2024-03-02T07:03:36;31.20;;;17.80;;
22754;SDS011;11544;42.020;23.094;2024-03-02T07:06:03;28.17;;;17.13;;
22754;SDS011;11544;42.020;23.094;2024-03-02T07:08:31;27.17;;;16.65;;
22754;SDS011;11544;42.020;23.094;2024-03-02T07:10:57;24.80;;;16.45;;
22754;SDS011;11544;42.020;23.094;2024-03-02T07:13:24;29.63;;;16.40;;
22754;SDS011;11544;42.020;23.094;2024-03-02T07:15:52;26.85;;;16.80;;
22754;SDS011;11544;42.020;23.094;2024-03-02T07:18:31;27.63;;;17.60;;
22754;SDS011;11544;42.020;23.094;2024-03-02T07:20:59;31.17;;;18.95;;
22754;SDS011;11544;42.020;23.094;2024-03-02T07:23:27;33.17;;;17.83;;
22754;SDS011;11544;42.020;23.094;2024-03-02T07:25:54;34.50;;;20.48;;
22754;SDS011;11544;42.020;23.094;2024-03-02T07:28:25;34.72;;;21.15;;
22754;SDS011;11544;42.020;23.094;2024-03-02T07:31:03;40.08;;;22.45;;
22754;SDS011;11544;42.020;23.094;2024-03-02T07:33:33;42.03;;;23.75;;
22754;SDS011;11544;42.020;23.094;2024-03-02T07:36:01;38.40;;;23.23;;
22754;SDS011;11544;42.020;23.094;2024-03-02T07:38:30;40.65;;;23.52;;
22754;SDS011;11544;42.020;23.094;2024-03-02T07:40:58;40.22;;;24.05;;
22754;SDS011;11544;42.020;23.094;2024-03-02T07:43:26;34.25;;;22.77;;
22754;SDS011;11544;42.020;23.094;2024-03-02T07:45:53;35.63;;;22.08;;
22754;SDS011;11544;42.020;23.094;2024-03-02T07:48:20;38.85;;;22.52;;
22754;SDS011;11544;42.020;23.094;2024-03-02T07:50:47;32.92;;;20.10;;
22754;SDS011;11544;42.020;23.094;2024-03-02T07:53:14;34.55;;;18.15;;
22754;SDS011;11544;42.020;23.094;2024-03-02T07:55:41;31.77;;;19.35;;
22754;SDS011;11544;42.020;23.094;2024-03-02T07:58:08;29.95;;;20.00;;
22754;SDS011;11544;42.020;23.094;2024-03-02T08:00:35;29.95;;;18.88;;
22754;SDS011;11544;42.020;23.094;2024-03-02T08:03:03;31.02;;;18.23;;
22754;SDS011;11544;42.020;23.094;2024-03-02T08:05:30;29.27;;;18.52;;
22754;SDS011;11544;42.020;23.094;2024-03-02T08:07:57;28.23;;;17.45;;
22754;SDS011;11544;42.020;23.094;2024-03-02T08:10:23;26.83;;;17.38;;
22754;SDS011;11544;42.020;23.094;2024-03-02T08:12:50;29.13;;;18.35;;
22754;SDS011;11544;42.020;23.094;2024-03-02T08:15:17;30.17;;;18.10;;
22754;SDS011;11544;42.020;23.094;2024-03-02T08:17:44;30.05;;;17.40;;
22754;SDS011;11544;42.020;23.094;2024-03-02T08:20:15;28.77;;;18.60;;
22754;SDS011;11544;42.020;23.094;2024-03-02T08:22:42;28.23;;;18.38;;
22754;SDS011;11544;42.020;23.094;2024-03-02T08:25:09;28.33;;;17.80;;
22754;SDS011;11544;42.020;23.094;2024-03-02T08:27:36;30.52;;;17.40;;
22754;SDS011;11544;42.020;23.094;2024-03-02T08:30:05;26.42;;;17.58;;
22754;SDS011;11544;42.020;23.094;2024-03-02T08:32:33;27.50;;;16.88;;
22754;SDS011;11544;42.020;23.094;2024-03-02T08:35:01;22.48;;;13.45;;
22754;SDS011;11544;42.020;23.094;2024-03-02T08:37:27;24.45;;;14.80;;
22754;SDS011;11544;42.020;23.094;2024-03-02T08:39:54;22.08;;;13.63;;
22754;SDS011;11544;42.020;23.094;2024-03-02T08:42:22;23.25;;;15.05;;
22754;SDS011;11544;42.020;23.094;2024-03-02T08:44:49;24.75;;;15.07;;
22754;SDS011;11544;42.020;23.094;2024-03-02T08:47:16;19.67;;;13.40;;
22754;SDS011;11544;42.020;23.094;2024-03-02T08:49:43;20.65;;;13.23;;
22754;SDS011;11544;42.020;23.094;2024-03-02T08:52:10;26.63;;;15.43;;
22754;SDS011;11544;42.020;23.094;2024-03-02T08:54:37;23.48;;;13.35;;
22754;SDS011;11544;42.020;23.094;2024-03-02T08:57:05;21.25;;;12.90;;
22754;SDS011;11544;42.020;23.094;2024-03-02T08:59:32;22.25;;;14.30;;
22754;SDS011;11544;42.020;23.094;2024-03-02T09:01:59;21.05;;;12.98;;
22754;SDS011;11544;42.020;23.094;2024-03-02T09:04:26;21.73;;;13.98;;
22754;SDS011;11544;42.020;23.094;2024-03-02T09:06:58;23.65;;;14.00;;
22754;SDS011;11544;42.020;23.094;2024-03-02T09:09:25;23.73;;;15.20;;
22754;SDS011;11544;42.020;23.094;2024-03-02T09:11:52;23.85;;;15.63;;
22754;SDS011;11544;42.020;23.094;2024-03-02T09:14:21;28.00;;;15.93;;
22754;SDS011;11544;42.020;23.094;2024-03-02T09:16:48;23.02;;;14.32;;
22754;SDS011;11544;42.020;23.094;2024-03-02T09:19:15;19.77;;;13.30;;
22754;SDS011;11544;42.020;23.094;2024-03-02T09:21:42;18.75;;;13.15;;
22754;SDS011;11544;42.020;23.094;2024-03-02T09:24:10;22.88;;;13.85;;
22754;SDS011;11544;42.020;23.094;2024-03-02T09:26:40;18.58;;;12.43;;
22754;SDS011;11544;42.020;23.094;2024-03-02T09:29:07;19.88;;;13.27;;
22754;SDS011;11544;42.020;23.094;2024-03-02T09:31:38;20.13;;;13.20;;
22754;SDS011;11544;42.020;23.094;2024-03-02T09:34:06;21.50;;;13.50;;
22754;SDS011;11544;42.020;23.094;2024-03-02T09:36:33;20.88;;;12.20;;
22754;SDS011;11544;42.020;23.094;2024-03-02T09:39:00;18.52;;;11.45;;
22754;SDS011;11544;42.020;23.094;2024-03-02T09:41:27;19.60;;;12.25;;
22754;SDS011;11544;42.020;23.094;2024-03-02T09:43:54;20.67;;;12.65;;
22754;SDS011;11544;42.020;23.094;2024-03-02T09:46:22;19.30;;;12.52;;
22754;SDS011;11544;42.020;23.094;2024-03-02T09:48:48;21.08;;;13.18;;
22754;SDS011;11544;42.020;23.094;2024-03-02T09:51:15;13.80;;;9.40;;
22754;SDS011;11544;42.020;23.094;2024-03-02T09:53:46;12.85;;;7.85;;
22754;SDS011;11544;42.020;23.094;2024-03-02T09:56:13;16.10;;;9.63;;
22754;SDS011;11544;42.020;23.094;2024-03-02T09:58:42;14.65;;;10.15;;
22754;SDS011;11544;42.020;23.094;2024-03-02T10:01:10;13.13;;;8.93;;
22754;SDS011;11544;42.020;23.094;2024-03-02T10:03:37;17.23;;;9.57;;
22754;SDS011;11544;42.020;23.094;2024-03-02T10:08:48;14.20;;;9.57;;
22754;SDS011;11544;42.020;23.094;2024-03-02T10:11:31;15.60;;;9.52;;
22754;SDS011;11544;42.020;23.094;2024-03-02T10:14:10;15.27;;;9.32;;
22754;SDS011;11544;42.020;23.094;2024-03-02T10:19:19;12.57;;;7.70;;
22754;SDS011;11544;42.020;23.094;2024-03-02T10:21:50;12.30;;;7.30;;
22754;SDS011;11544;42.020;23.094;2024-03-02T10:24:18;9.65;;;7.05;;
22754;SDS011;11544;42.020;23.094;2024-03-02T10:26:47;9.27;;;6.07;;
22754;SDS011;11544;42.020;23.094;2024-03-02T10:29:14;6.60;;;4.90;;
22754;SDS011;11544;42.020;23.094;2024-03-02T10:31:42;8.18;;;5.38;;
22754;SDS011;11544;42.020;23.094;2024-03-02T10:34:10;6.45;;;4.65;;
22754;SDS011;11544;42.020;23.094;2024-03-02T10:36:42;6.80;;;4.80;;
22754;SDS011;11544;42.020;23.094;2024-03-02T10:39:09;10.23;;;6.40;;
22754;SDS011;11544;42.020;23.094;2024-03-02T10:41:37;8.75;;;5.38;;
22754;SDS011;11544;42.020;23.094;2024-03-02T10:44:05;6.30;;;4.70;;
22754;SDS011;11544;42.020;23.094;2024-03-02T10:46:35;10.02;;;6.93;;
22754;SDS011;11544;42.020;23.094;2024-03-02T10:49:04;14.15;;;8.57;;
22754;SDS011;11544;42.020;23.094;2024-03-02T10:51:34;15.93;;;9.20;;
22754;SDS011;11544;42.020;23.094;2024-03-02T10:54:04;13.57;;;8.85;;
22754;SDS011;11544;42.020;23.094;2024-03-02T10:56:32;15.05;;;9.63;;
22754;SDS011;11544;42.020;23.094;2024-03-02T10:59:03;14.50;;;9.35;;
22754;SDS011;11544;42.020;23.094;2024-03-02T11:01:33;13.60;;;8.65;;
22754;SDS011;11544;42.020;23.094;2024-03-02T11:04:01;13.82;;;8.63;;
22754;SDS011;11544;42.020;23.094;2024-03-02T11:06:30;13.77;;;9.70;;
22754;SDS011;11544;42.020;23.094;2024-03-02T11:09:00;15.00;;;9.70;;
22754;SDS011;11544;42.020;23.094;2024-03-02T11:11:36;12.93;;;8.73;;
22754;SDS011;11544;42.020;23.094;2024-03-02T11:14:10;14.75;;;9.55;;
22754;SDS011;11544;42.020;23.094;2024-03-02T11:16:40;17.30;;;9.90;;
22754;SDS011;11544;42.020;23.094;2024-03-02T11:19:11;12.73;;;8.85;;
22754;SDS011;11544;42.020;23.094;2024-03-02T11:21:43;16.38;;;9.10;;
22754;SDS011;11544;42.020;23.094;2024-03-02T11:26:53;13.57;;;8.95;;
22754;SDS011;11544;42.020;23.094;2024-03-02T11:32:03;12.48;;;7.65;;
22754;SDS011;11544;42.020;23.094;2024-03-02T11:34:34;13.77;;;7.95;;
22754;SDS011;11544;42.020;23.094;2024-03-02T11:37:02;19.08;;;8.00;;
22754;SDS011;11544;42.020;23.094;2024-03-02T11:39:30;11.45;;;7.47;;
22754;SDS011;11544;42.020;23.094;2024-03-02T11:41:57;12.40;;;8.23;;
22754;SDS011;11544;42.020;23.094;2024-03-02T11:44:26;12.18;;;7.50;;
22754;SDS011;11544;42.020;23.094;2024-03-02T11:47:00;11.73;;;7.25;;
22754;SDS011;11544;42.020;23.094;2024-03-02T11:52:16;9.45;;;7.30;;
22754;SDS011;11544;42.020;23.094;2024-03-02T11:54:45;8.68;;;6.47;;
22754;SDS011;11544;42.020;23.094;2024-03-02T11:57:18;9.77;;;6.32;;
22754;SDS011;11544;42.020;23.094;2024-03-02T11:59:49;11.63;;;6.97;;
22754;SDS011;11544;42.020;23.094;2024-03-02T12:02:17;9.32;;;6.20;;
22754;SDS011;11544;42.020;23.094;2024-03-02T12:04:48;8.23;;;5.70;;
22754;SDS011;11544;42.020;23.094;2024-03-02T12:07:22;9.98;;;6.50;;
22754;SDS011;11544;42.020;23.094;2024-03-02T12:10:00;13.88;;;6.03;;
22754;SDS011;11544;42.020;23.094;2024-03-02T12:12:30;12.38;;;6.70;;
22754;SDS011;11544;42.020;23.094;2024-03-02T12:14:57;8.93;;;5.70;;
22754;SDS011;11544;42.020;23.094;2024-03-02T12:17:26;9.70;;;5.97;;
22754;SDS011;11544;42.020;23.094;2024-03-02T12:19:53;11.18;;;5.60;;
22754;SDS011;11544;42.020;23.094;2024-03-02T12:22:20;7.13;;;4.93;;
22754;SDS011;11544;42.020;23.094;2024-03-02T12:24:47;11.70;;;6.13;;
22754;SDS011;11544;42.020;23.094;2024-03-02T12:27:15;9.18;;;6.05;;
22754;SDS011;11544;42.020;23.094;2024-03-02T12:29:43;7.00;;;5.03;;
22754;SDS011;11544;42.020;23.094;2024-03-02T12:32:10;14.18;;;6.38;;
22754;SDS011;11544;42.020;23.094;2024-03-02T12:34:37;8.63;;;5.65;;
22754;SDS011;11544;42.020;23.094;2024-03-02T12:37:05;7.68;;;5.10;;
22754;SDS011;11544;42.020;23.094;2024-03-02T12:39:32;6.85;;;4.68;;
22754;SDS011;11544;42.020;23.094;2024-03-02T12:41:59;5.75;;;4.07;;
22754;SDS011;11544;42.020;23.094;2024-03-02T12:44:26;6.80;;;4.18;;
22754;SDS011;11544;42.020;23.094;2024-03-02T12:46:53;7.10;;;4.40;;
22754;SDS011;11544;42.020;23.094;2024-03-02T12:49:24;9.35;;;4.95;;
22754;SDS011;11544;42.020;23.094;2024-03-02T12:51:52;7.72;;;4.93;;
22754;SDS011;11544;42.020;23.094;2024-03-02T12:54:21;6.60;;;4.80;;
22754;SDS011;11544;42.020;23.094;2024-03-02T12:56:49;6.30;;;4.05;;
22754;SDS011;11544;42.020;23.094;2024-03-02T12:59:21;6.93;;;4.47;;
22754;SDS011;11544;42.020;23.094;2024-03-02T13:01:51;5.95;;;4.40;;
22754;SDS011;11544;42.020;23.094;2024-03-02T13:04:24;8.93;;;4.72;;
22754;SDS011;11544;42.020;23.094;2024-03-02T13:06:52;7.20;;;4.03;;
22754;SDS011;11544;42.020;23.094;2024-03-02T13:09:20;4.75;;;3.58;;
22754;SDS011;11544;42.020;23.094;2024-03-02T13:11:47;7.97;;;4.32;;
22754;SDS011;11544;42.020;23.094;2024-03-02T13:14:14;8.05;;;4.70;;
22754;SDS011;11544;42.020;23.094;2024-03-02T13:16:41;3.97;;;3.50;;
22754;SDS011;11544;42.020;23.094;2024-03-02T13:19:14;6.32;;;4.05;;
22754;SDS011;11544;42.020;23.094;2024-03-02T13:21:41;7.28;;;4.47;;
22754;SDS011;11544;42.020;23.094;2024-03-02T13:24:11;6.50;;;4.22;;
22754;SDS011;11544;42.020;23.094;2024-03-02T13:26:38;8.75;;;4.20;;
22754;SDS011;11544;42.020;23.094;2024-03-02T13:29:07;6.32;;;4.20;;
22754;SDS011;11544;42.020;23.094;2024-03-02T13:31:34;6.25;;;4.45;;
22754;SDS011;11544;42.020;23.094;2024-03-02T13:34:01;9.52;;;4.05;;
22754;SDS011;11544;42.020;23.094;2024-03-02T13:36:28;7.07;;;4.03;;
22754;SDS011;11544;42.020;23.094;2024-03-02T13:38:55;6.72;;;4.25;;
22754;SDS011;11544;42.020;23.094;2024-03-02T13:41:24;6.93;;;3.50;;
22754;SDS011;11544;42.020;23.094;2024-03-02T13:43:51;5.43;;;3.72;;
22754;SDS011;11544;42.020;23.094;2024-03-02T13:46:19;5.38;;;3.85;;
22754;SDS011;11544;42.020;23.094;2024-03-02T13:48:47;5.50;;;3.28;;
22754;SDS011;11544;42.020;23.094;2024-03-02T13:51:14;8.07;;;3.85;;
22754;SDS011;11544;42.020;23.094;2024-03-02T13:53:41;7.43;;;3.72;;
22754;SDS011;11544;42.020;23.094;2024-03-02T13:56:07;6.93;;;3.35;;
22754;SDS011;11544;42.020;23.094;2024-03-02T13:58:34;8.02;;;3.67;;
22754;SDS011;11544;42.020;23.094;2024-03-02T14:01:01;4.75;;;3.63;;
22754;SDS011;11544;42.020;23.094;2024-03-02T14:03:35;5.32;;;3.70;;
22754;SDS011;11544;42.020;23.094;2024-03-02T14:06:02;5.78;;;4.28;;
22754;SDS011;11544;42.020;23.094;2024-03-02T14:08:29;7.13;;;4.25;;
22754;SDS011;11544;42.020;23.094;2024-03-02T14:10:57;9.30;;;3.85;;
22754;SDS011;11544;42.020;23.094;2024-03-02T14:13:26;6.18;;;4.18;;
22754;SDS011;11544;42.020;23.094;2024-03-02T14:15:53;9.02;;;4.18;;
22754;SDS011;11544;42.020;23.094;2024-03-02T14:18:21;9.07;;;4.50;;
22754;SDS011;11544;42.020;23.094;2024-03-02T14:20:48;7.68;;;4.28;;
22754;SDS011;11544;42.020;23.094;2024-03-02T14:23:19;5.85;;;4.43;;
22754;SDS011;11544;42.020;23.094;2024-03-02T14:25:46;7.93;;;4.78;;
22754;SDS011;11544;42.020;23.094;2024-03-02T14:28:14;6.32;;;4.45;;
22754;SDS011;11544;42.020;23.094;2024-03-02T14:31:02;5.68;;;3.83;;
22754;SDS011;11544;42.020;23.094;2024-03-02T14:33:30;6.60;;;4.15;;
22754;SDS011;11544;42.020;23.094;2024-03-02T14:35:57;7.00;;;4.65;;
22754;SDS011;11544;42.020;23.094;2024-03-02T14:38:24;5.45;;;4.00;;